createdAt,value
2019-01-18T00:00:48.050Z,9.20
2019-01-18T00:03:16.526Z,9.30
2019-01-18T00:05:44.936Z,9.30
2019-01-18T00:08:13.299Z,9.40
2019-01-18T00:10:41.762Z,9.20
2019-01-18T00:13:10.289Z,9.30
2019-01-18T00:15:38.875Z,9.20
2019-01-18T00:18:07.613Z,9.10
2019-01-18T00:20:35.910Z,9.10
2019-01-18T00:23:04.676Z,9.10
2019-01-18T00:25:33.393Z,9.00
2019-01-18T00:28:02.046Z,8.90
2019-01-18T00:30:30.562Z,9.00
2019-01-18T00:32:58.835Z,8.90
2019-01-18T00:35:27.387Z,8.80
2019-01-18T00:37:55.872Z,8.70
2019-01-18T00:40:24.078Z,8.80
2019-01-18T00:42:52.358Z,8.80
2019-01-18T00:45:20.871Z,8.70
2019-01-18T00:47:49.276Z,8.80
2019-01-18T00:50:17.689Z,8.70
2019-01-18T00:52:47.654Z,8.70
2019-01-18T00:55:16.310Z,8.70
2019-01-18T00:57:44.884Z,8.80
2019-01-18T01:00:21.269Z,8.80
2019-01-18T01:02:49.712Z,8.80
2019-01-18T01:05:18.674Z,8.90
2019-01-18T01:07:47.175Z,9.00
2019-01-18T01:10:15.451Z,9.00
2019-01-18T01:12:44.012Z,9.00
2019-01-18T01:15:14.952Z,8.80
2019-01-18T01:17:43.667Z,8.80
2019-01-18T01:20:14.370Z,8.70
2019-01-18T01:22:42.949Z,8.80
2019-01-18T01:25:11.956Z,8.80
2019-01-18T01:27:40.566Z,8.90
2019-01-18T01:30:12.793Z,8.80
2019-01-18T01:32:41.308Z,8.80
2019-01-18T01:35:09.703Z,8.80
2019-01-18T01:37:38.234Z,8.80
2019-01-18T01:40:09.420Z,8.80
2019-01-18T01:42:37.793Z,8.90
2019-01-18T01:45:06.858Z,8.90
2019-01-18T01:47:35.284Z,8.80
2019-01-18T01:50:05.101Z,8.80
2019-01-18T01:52:33.432Z,8.90
2019-01-18T01:55:03.543Z,9.10
2019-01-18T01:57:31.948Z,9.20
2019-01-18T02:00:00.300Z,9.20
2019-01-18T02:02:28.608Z,9.10
2019-01-18T02:04:56.946Z,9.00
2019-01-18T02:07:25.426Z,8.90
2019-01-18T02:09:53.908Z,8.90
2019-01-18T02:12:22.233Z,8.80
2019-01-18T02:14:50.765Z,8.70
2019-01-18T02:17:19.180Z,8.70
2019-01-18T02:19:47.453Z,8.80
2019-01-18T02:22:16.002Z,8.70
2019-01-18T02:24:44.416Z,8.90
2019-01-18T02:27:12.840Z,8.80
2019-01-18T02:29:41.204Z,8.80
2019-01-18T02:32:09.842Z,8.80
2019-01-18T02:34:38.222Z,8.90
2019-01-18T02:37:06.801Z,8.80
2019-01-18T02:39:35.367Z,8.90
2019-01-18T02:42:04.832Z,9.00
2019-01-18T02:44:33.348Z,8.80
2019-01-18T02:47:01.657Z,8.70
2019-01-18T02:49:30.056Z,8.70
2019-01-18T02:51:58.587Z,8.80
2019-01-18T02:54:26.904Z,8.90
2019-01-18T02:56:55.271Z,8.70
2019-01-18T02:59:23.720Z,8.70
2019-01-18T03:01:52.232Z,8.80
2019-01-18T03:04:26.480Z,8.70
2019-01-18T03:06:55.237Z,8.50
2019-01-18T03:09:23.784Z,8.60
2019-01-18T03:11:52.608Z,8.60
2019-01-18T03:14:21.154Z,8.60
2019-01-18T03:16:49.564Z,8.70
2019-01-18T03:19:18.116Z,8.80
2019-01-18T03:21:46.633Z,8.80
2019-01-18T03:24:15.017Z,8.90
2019-01-18T03:26:43.556Z,8.90
2019-01-18T03:29:11.967Z,9.20
2019-01-18T03:31:40.381Z,9.10
2019-01-18T03:34:08.895Z,9.20
2019-01-18T03:36:37.409Z,9.40
2019-01-18T03:39:09.404Z,9.30
2019-01-18T03:41:38.971Z,9.40
2019-01-18T03:44:07.263Z,9.30
2019-01-18T03:46:35.529Z,9.40
2019-01-18T03:49:04.808Z,9.50
2019-01-18T03:51:33.427Z,9.60
2019-01-18T03:54:02.064Z,9.70
2019-01-18T03:56:30.546Z,9.80
2019-01-18T03:58:59.441Z,9.70
2019-01-18T04:01:27.844Z,9.70
2019-01-18T04:03:56.333Z,9.90
2019-01-18T04:06:24.707Z,9.70
2019-01-18T04:08:52.990Z,9.50
2019-01-18T04:11:21.526Z,9.30
2019-01-18T04:13:49.929Z,9.10
2019-01-18T04:16:20.023Z,9.10
2019-01-18T04:18:48.607Z,9.30
2019-01-18T04:21:17.110Z,9.30
2019-01-18T04:23:47.399Z,9.20
2019-01-18T04:26:15.993Z,9.10
2019-01-18T04:28:44.512Z,9.00
2019-01-18T04:31:12.773Z,8.90
2019-01-18T04:33:41.330Z,8.80
2019-01-18T04:36:09.733Z,9.00
2019-01-18T04:38:38.303Z,9.10
2019-01-18T04:41:06.764Z,9.50
2019-01-18T04:43:35.089Z,9.10
2019-01-18T04:46:04.592Z,9.10
2019-01-18T04:48:33.340Z,9.10
2019-01-18T04:51:02.053Z,9.40
2019-01-18T04:53:30.301Z,9.40
2019-01-18T04:55:58.681Z,9.10
2019-01-18T04:58:27.270Z,8.80
2019-01-18T05:00:55.980Z,8.70
2019-01-18T05:03:24.358Z,8.60
2019-01-18T05:05:52.849Z,8.50
2019-01-18T05:08:21.321Z,8.60
2019-01-18T05:10:49.630Z,8.70
2019-01-18T05:13:18.043Z,8.70
2019-01-18T05:15:46.468Z,8.70
2019-01-18T05:18:14.860Z,8.50
2019-01-18T05:20:43.380Z,8.40
2019-01-18T05:23:11.792Z,8.60
2019-01-18T05:25:40.245Z,8.60
2019-01-18T05:28:08.821Z,8.50
2019-01-18T05:30:37.233Z,8.40
2019-01-18T05:33:05.686Z,8.40
2019-01-18T05:35:34.193Z,8.30
2019-01-18T05:38:02.466Z,8.30
2019-01-18T05:40:30.854Z,8.30
2019-01-18T05:42:59.337Z,8.30
2019-01-18T05:45:27.696Z,8.20
2019-01-18T05:47:56.113Z,8.20
2019-01-18T05:50:28.833Z,8.40
2019-01-18T05:52:58.527Z,8.40
2019-01-18T05:55:27.157Z,8.50
2019-01-18T05:57:55.536Z,8.50
2019-01-18T06:00:34.118Z,8.60
2019-01-18T06:03:02.430Z,8.70
2019-01-18T06:05:31.415Z,8.70
2019-01-18T06:07:59.649Z,8.70
2019-01-18T06:10:27.969Z,8.70
2019-01-18T06:12:56.292Z,8.80
2019-01-18T06:15:24.691Z,8.90
2019-01-18T06:17:53.000Z,9.00
2019-01-18T06:20:21.539Z,9.20
2019-01-18T06:22:49.803Z,9.30
2019-01-18T06:25:18.410Z,9.50
2019-01-18T06:27:46.829Z,9.30
2019-01-18T06:30:21.684Z,9.20
2019-01-18T06:32:50.592Z,9.10
2019-01-18T06:35:22.178Z,9.20
2019-01-18T06:37:50.421Z,9.30
2019-01-18T06:40:18.782Z,9.40
2019-01-18T06:42:47.119Z,9.40
2019-01-18T06:45:17.009Z,9.90
2019-01-18T06:47:45.691Z,10.50
2019-01-18T06:50:15.754Z,10.90
2019-01-18T06:52:44.107Z,10.90
2019-01-18T06:55:12.666Z,11.20
2019-01-18T06:57:41.380Z,11.70
2019-01-18T07:00:16.505Z,11.70
2019-01-18T07:02:44.906Z,11.80
2019-01-18T07:05:13.277Z,12.40
2019-01-18T07:07:41.909Z,12.50
2019-01-18T07:10:12.195Z,12.10
2019-01-18T07:12:40.560Z,11.70
2019-01-18T07:15:10.659Z,11.20
2019-01-18T07:17:39.331Z,11.10
2019-01-18T07:20:14.673Z,11.40
2019-01-18T07:22:43.153Z,12.30
2019-01-18T07:25:14.327Z,12.20
2019-01-18T07:27:42.808Z,12.50
2019-01-18T07:30:17.777Z,13.10
2019-01-18T07:32:46.291Z,13.50
2019-01-18T07:35:14.691Z,14.00
2019-01-18T07:37:43.172Z,14.50
2019-01-18T07:40:12.143Z,14.70
2019-01-18T07:42:40.552Z,15.60
2019-01-18T07:45:15.455Z,15.50
2019-01-18T07:47:43.871Z,15.80
2019-01-18T07:50:12.567Z,14.90
2019-01-18T07:52:41.200Z,14.00
2019-01-18T07:55:09.714Z,13.70
2019-01-18T07:57:38.100Z,13.60
2019-01-18T08:00:18.928Z,13.20
2019-01-18T08:02:47.542Z,13.00
2019-01-18T08:05:16.077Z,12.90
2019-01-18T08:07:44.922Z,12.90
2019-01-18T08:10:17.662Z,12.80
2019-01-18T08:12:46.149Z,12.80
2019-01-18T08:15:19.370Z,12.80
2019-01-18T08:17:47.917Z,12.90
2019-01-18T08:20:20.649Z,12.90
2019-01-18T08:22:49.000Z,13.00
2019-01-18T08:25:17.453Z,13.10
2019-01-18T08:27:46.034Z,13.50
2019-01-18T08:30:25.510Z,13.40
2019-01-18T08:32:54.055Z,13.60
2019-01-18T08:35:23.084Z,14.20
2019-01-18T08:37:51.766Z,14.00
2019-01-18T08:40:22.694Z,14.20
2019-01-18T08:42:51.073Z,14.10
2019-01-18T08:45:31.407Z,14.10
2019-01-18T08:47:59.991Z,14.30
2019-01-18T08:50:28.399Z,14.00
2019-01-18T08:52:56.848Z,13.80
2019-01-18T08:55:25.460Z,13.60
2019-01-18T08:57:54.013Z,13.90
2019-01-18T09:00:23.822Z,13.50
2019-01-18T09:02:52.410Z,13.60
2019-01-18T09:05:22.837Z,13.70
2019-01-18T09:07:51.449Z,13.50
2019-01-18T09:10:20.944Z,13.80
2019-01-18T09:12:50.999Z,14.00
2019-01-18T09:15:19.725Z,14.00
2019-01-18T09:17:48.205Z,14.20
2019-01-18T09:20:18.835Z,14.20
2019-01-18T09:22:47.553Z,14.00
2019-01-18T09:25:16.250Z,14.10
2019-01-18T09:27:44.891Z,14.40
2019-01-18T09:30:15.968Z,14.50
2019-01-18T09:32:44.335Z,14.30
2019-01-18T09:35:13.658Z,14.50
2019-01-18T09:37:42.131Z,15.30
2019-01-18T09:40:13.679Z,15.60
2019-01-18T09:42:42.157Z,15.80
2019-01-18T09:45:10.916Z,16.00
2019-01-18T09:47:39.322Z,16.10
2019-01-18T09:50:10.883Z,15.40
2019-01-18T09:52:39.524Z,15.40
2019-01-18T09:55:08.653Z,15.00
2019-01-18T09:57:37.056Z,14.90
2019-01-18T10:00:09.897Z,15.10
2019-01-18T10:02:38.307Z,15.30
2019-01-18T10:05:08.043Z,15.40
2019-01-18T10:07:36.551Z,15.80
2019-01-18T10:10:07.002Z,15.80
2019-01-18T10:12:35.357Z,15.80
2019-01-18T10:15:06.394Z,16.20
2019-01-18T10:17:34.978Z,17.90
2019-01-18T10:20:04.138Z,18.50
2019-01-18T10:22:32.584Z,19.00
2019-01-18T10:25:00.972Z,17.70
2019-01-18T10:27:29.331Z,17.90
2019-01-18T10:29:57.891Z,18.50
2019-01-18T10:32:26.474Z,18.60
2019-01-18T10:34:54.789Z,18.90
2019-01-18T10:37:23.378Z,19.00
2019-01-18T10:39:51.535Z,17.90
2019-01-18T10:42:39.442Z,17.80
2019-01-18T10:45:08.781Z,19.30
2019-01-18T10:47:37.015Z,20.50
2019-01-18T10:50:07.252Z,19.90
2019-01-18T10:52:35.538Z,20.00
2019-01-18T10:55:05.060Z,20.10
2019-01-18T10:57:33.401Z,20.50
2019-01-18T11:00:02.082Z,20.00
2019-01-18T11:02:30.293Z,19.20
2019-01-18T11:04:58.486Z,19.30
2019-01-18T11:07:26.805Z,19.40
2019-01-18T11:09:55.321Z,19.40
2019-01-18T11:12:23.781Z,19.60
2019-01-18T11:14:52.188Z,20.00
2019-01-18T11:17:20.462Z,18.90
2019-01-18T11:19:49.002Z,19.20
2019-01-18T11:22:17.429Z,18.80
2019-01-18T11:24:45.859Z,18.60
2019-01-18T11:27:14.377Z,18.90
2019-01-18T11:29:42.957Z,18.80
2019-01-18T11:32:13.769Z,18.50
2019-01-18T11:34:41.632Z,18.50
2019-01-18T11:37:10.023Z,18.50
2019-01-18T11:39:38.585Z,18.60
2019-01-18T11:42:07.066Z,18.60
2019-01-18T11:44:35.547Z,18.60
2019-01-18T11:47:04.232Z,18.90
2019-01-18T11:49:32.712Z,19.20
2019-01-18T11:52:01.225Z,18.40
2019-01-18T11:54:29.625Z,18.30
2019-01-18T11:56:57.929Z,18.40
2019-01-18T11:59:26.426Z,18.70
2019-01-18T12:01:54.732Z,18.90
2019-01-18T12:04:23.110Z,19.50
2019-01-18T12:06:51.563Z,20.10
2019-01-18T12:09:20.078Z,20.30
2019-01-18T12:11:48.779Z,19.90
2019-01-18T12:14:18.658Z,19.80
2019-01-18T12:16:46.960Z,19.40
2019-01-18T12:19:15.428Z,18.70
2019-01-18T12:21:43.701Z,18.90
2019-01-18T12:24:12.177Z,18.30
2019-01-18T12:26:40.742Z,18.20
2019-01-18T12:29:09.218Z,17.80
2019-01-18T12:31:39.333Z,18.00
2019-01-18T12:34:07.713Z,17.80
2019-01-18T12:36:36.224Z,17.50
2019-01-18T12:39:08.769Z,17.40
2019-01-18T12:41:37.177Z,17.30
2019-01-18T12:44:05.792Z,17.30
2019-01-18T12:46:34.209Z,17.20
2019-01-18T12:49:02.643Z,17.10
2019-01-18T12:51:30.971Z,17.00
2019-01-18T12:53:59.370Z,17.20
2019-01-18T12:56:27.653Z,17.40
2019-01-18T12:58:56.705Z,17.50
2019-01-18T13:01:25.219Z,17.70
2019-01-18T13:03:53.687Z,17.60
2019-01-18T13:06:22.257Z,17.60
2019-01-18T13:08:50.667Z,17.10
2019-01-18T13:11:19.043Z,17.30
2019-01-18T13:13:47.596Z,17.20
2019-01-18T13:16:25.205Z,17.10
2019-01-18T13:18:59.303Z,17.30
2019-01-18T13:21:27.786Z,17.40
2019-01-18T13:23:56.283Z,17.70
2019-01-18T13:26:24.849Z,17.60
2019-01-18T13:28:53.120Z,17.60
2019-01-18T13:31:21.684Z,17.50
2019-01-18T13:33:50.186Z,17.50
2019-01-18T13:36:18.592Z,17.70
2019-01-18T13:38:47.042Z,17.20
2019-01-18T13:41:15.737Z,17.30
2019-01-18T13:43:44.151Z,17.00
2019-01-18T13:46:12.585Z,16.90
2019-01-18T13:48:41.231Z,17.10
2019-01-18T13:51:09.672Z,17.00
2019-01-18T13:53:38.237Z,17.00
2019-01-18T13:56:07.019Z,17.00
2019-01-18T13:58:35.421Z,17.00
2019-01-18T14:01:04.184Z,17.00
2019-01-18T14:03:32.677Z,16.80
2019-01-18T14:06:01.072Z,16.60
2019-01-18T14:08:29.626Z,16.40
2019-01-18T14:10:58.829Z,16.50
2019-01-18T14:13:27.133Z,16.70
2019-01-18T14:15:55.785Z,16.80
2019-01-18T14:18:24.263Z,16.90
2019-01-18T14:20:52.680Z,16.80
2019-01-18T14:23:20.908Z,16.70
2019-01-18T14:25:49.602Z,16.60
2019-01-18T14:28:18.016Z,16.70
2019-01-18T14:30:46.388Z,16.90
2019-01-18T14:33:15.888Z,16.90
2019-01-18T14:35:44.445Z,16.90
2019-01-18T14:38:12.842Z,16.90
2019-01-18T14:40:41.320Z,16.80
2019-01-18T14:43:09.990Z,16.80
2019-01-18T14:45:40.448Z,16.80
2019-01-18T14:48:08.997Z,16.80
2019-01-18T14:50:37.410Z,16.70
2019-01-18T14:53:05.898Z,16.80
2019-01-18T14:55:34.671Z,16.60
2019-01-18T14:58:03.768Z,16.60
2019-01-18T15:00:35.700Z,16.20
2019-01-18T15:03:04.657Z,16.40
2019-01-18T15:05:33.281Z,16.30
2019-01-18T15:08:01.813Z,16.50
2019-01-18T15:10:30.439Z,16.40
2019-01-18T15:13:01.208Z,16.10
2019-01-18T15:15:29.653Z,16.30
2019-01-18T15:17:58.173Z,16.20
2019-01-18T15:20:28.295Z,16.20
2019-01-18T15:22:56.834Z,16.10
2019-01-18T15:25:25.508Z,16.30
2019-01-18T15:27:53.829Z,16.30
2019-01-18T15:30:24.395Z,16.00
2019-01-18T15:32:52.730Z,15.90
2019-01-18T15:35:23.269Z,16.00
2019-01-18T15:37:51.750Z,15.40
2019-01-18T15:40:22.376Z,15.10
2019-01-18T15:42:51.060Z,14.90
2019-01-18T15:45:19.449Z,14.90
2019-01-18T15:47:47.837Z,14.90
2019-01-18T15:50:21.848Z,15.00
2019-01-18T15:52:50.374Z,15.10
2019-01-18T15:55:18.994Z,15.10
2019-01-18T15:57:47.464Z,14.70
2019-01-18T16:00:19.098Z,14.40
2019-01-18T16:02:47.776Z,14.30
2019-01-18T16:05:16.195Z,14.30
2019-01-18T16:07:44.551Z,14.20
2019-01-18T16:10:13.357Z,14.10
2019-01-18T16:12:41.836Z,14.00
2019-01-18T16:15:11.129Z,13.80
2019-01-18T16:17:39.821Z,13.90
2019-01-18T16:20:16.000Z,13.70
2019-01-18T16:22:44.962Z,13.80
2019-01-18T16:25:16.073Z,14.00
2019-01-18T16:27:44.561Z,14.10
2019-01-18T16:30:15.228Z,14.10
2019-01-18T16:32:43.616Z,14.40
2019-01-18T16:35:13.374Z,14.00
2019-01-18T16:37:41.896Z,14.20
2019-01-18T16:40:13.015Z,13.90
2019-01-18T16:42:42.183Z,14.00
2019-01-18T16:45:11.206Z,14.10
2019-01-18T16:47:39.677Z,14.30
2019-01-18T16:50:10.100Z,14.50
2019-01-18T16:52:38.684Z,14.70
2019-01-18T16:55:08.434Z,14.40
2019-01-18T16:57:36.975Z,14.10
2019-01-18T17:00:15.695Z,14.30
2019-01-18T17:02:44.276Z,14.30
2019-01-18T17:05:12.573Z,14.40
2019-01-18T17:07:40.851Z,14.40
2019-01-18T17:10:10.645Z,14.50
2019-01-18T17:12:39.222Z,14.40
2019-01-18T17:15:08.735Z,14.30
2019-01-18T17:17:37.216Z,14.00
2019-01-18T17:20:10.443Z,14.10
2019-01-18T17:22:38.600Z,14.10
2019-01-18T17:25:07.052Z,14.00
2019-01-18T17:27:35.636Z,13.70
2019-01-18T17:30:05.560Z,13.90
2019-01-18T17:32:34.131Z,13.90
2019-01-18T17:35:02.865Z,13.90
2019-01-18T17:37:35.818Z,13.70
2019-01-18T17:40:38.279Z,13.80
2019-01-18T17:43:22.734Z,13.80
2019-01-18T17:46:28.783Z,13.70
2019-01-18T17:49:37.929Z,13.80
2019-01-18T17:52:50.041Z,13.80
2019-01-18T17:56:03.161Z,13.70
2019-01-18T17:58:57.649Z,13.60
2019-01-18T18:02:13.335Z,13.80
2019-01-18T18:04:56.869Z,13.70
2019-01-18T18:08:07.774Z,13.70
2019-01-18T18:11:15.885Z,13.60
2019-01-18T18:14:22.565Z,13.60
2019-01-18T18:17:21.933Z,13.80
2019-01-18T18:20:23.483Z,13.90
2019-01-18T18:23:16.444Z,13.80
2019-01-18T18:26:06.430Z,13.90
2019-01-18T18:28:58.592Z,13.70
2019-01-18T18:32:11.278Z,13.90
2019-01-18T18:35:09.661Z,13.90
2019-01-18T18:38:23.300Z,13.70
2019-01-18T18:41:42.469Z,13.70
2019-01-18T18:45:04.712Z,13.60
2019-01-18T18:48:07.288Z,13.60
2019-01-18T18:51:15.910Z,13.30
2019-01-18T18:54:37.232Z,13.40
2019-01-18T18:57:22.710Z,13.10
2019-01-18T19:00:27.335Z,13.00
2019-01-18T19:03:35.890Z,13.10
2019-01-18T19:06:54.817Z,12.90
2019-01-18T19:09:51.869Z,12.90
2019-01-18T19:13:09.603Z,12.50
2019-01-18T19:16:31.638Z,12.80
2019-01-18T19:19:47.224Z,13.00
2019-01-18T19:22:56.151Z,12.90
2019-01-18T19:25:35.695Z,12.70
2019-01-18T19:28:47.237Z,12.50
2019-01-18T19:32:21.503Z,12.50
2019-01-18T19:35:21.218Z,12.40
2019-01-18T19:38:26.695Z,12.70
2019-01-18T19:41:45.831Z,12.70
2019-01-18T19:44:48.820Z,12.20
2019-01-18T19:47:35.440Z,12.60
2019-01-18T19:50:34.829Z,12.20
2019-01-18T19:53:37.000Z,12.00
2019-01-18T19:56:46.452Z,12.30
2019-01-18T19:59:59.267Z,12.30
2019-01-18T20:03:20.993Z,12.20
2019-01-18T20:06:38.621Z,12.10
2019-01-18T20:09:41.612Z,12.00
2019-01-18T20:12:47.203Z,11.90
2019-01-18T20:15:36.654Z,12.00
2019-01-18T20:18:51.093Z,11.90
2019-01-18T20:22:08.013Z,11.90
2019-01-18T20:25:06.080Z,11.80
2019-01-18T20:28:10.912Z,11.70
2019-01-18T20:31:05.301Z,11.60
2019-01-18T20:34:14.763Z,11.10
2019-01-18T20:37:12.917Z,11.10
2019-01-18T20:40:21.950Z,11.50
2019-01-18T20:43:15.291Z,11.80
2019-01-18T20:46:41.368Z,11.70
2019-01-18T20:49:59.998Z,11.70
2019-01-18T20:53:10.292Z,11.60
2019-01-18T20:56:29.046Z,11.80
2019-01-18T20:59:19.718Z,11.80
2019-01-18T21:02:13.469Z,11.70
2019-01-18T21:05:14.639Z,11.60
2019-01-18T21:08:36.583Z,11.40
2019-01-18T21:11:20.672Z,11.40
2019-01-18T21:14:45.826Z,11.40
2019-01-18T21:17:44.309Z,11.30
2019-01-18T21:20:37.310Z,11.30
2019-01-18T21:23:21.144Z,11.40
2019-01-18T21:26:18.196Z,11.40
2019-01-18T21:29:40.199Z,11.40
2019-01-18T21:32:53.111Z,11.40
2019-01-18T21:36:02.145Z,11.20
2019-01-18T21:39:16.645Z,11.30
2019-01-18T21:42:42.017Z,11.40
2019-01-18T21:45:51.764Z,11.20
2019-01-18T21:48:44.107Z,11.30
2019-01-18T21:51:39.619Z,11.20
2019-01-18T21:54:32.703Z,11.30
2019-01-18T21:57:35.150Z,11.20
2019-01-18T22:00:43.874Z,11.20
2019-01-18T22:03:47.843Z,11.20
2019-01-18T22:06:53.571Z,11.20
2019-01-18T22:09:42.914Z,11.20
2019-01-18T22:12:42.214Z,11.10
2019-01-18T22:16:13.668Z,11.20
2019-01-18T22:19:20.755Z,11.10
2019-01-18T22:22:08.165Z,10.90
2019-01-18T22:25:14.497Z,11.00
2019-01-18T22:28:04.165Z,11.00
2019-01-18T22:31:06.498Z,11.00
2019-01-18T22:34:08.704Z,10.90
2019-01-18T22:37:11.556Z,10.90
2019-01-18T22:40:19.868Z,10.80
2019-01-18T22:43:22.311Z,10.90
2019-01-18T22:46:44.586Z,10.90
2019-01-18T22:49:37.029Z,11.00
2019-01-18T22:52:57.736Z,10.90
2019-01-18T22:55:46.266Z,11.00
2019-01-18T22:58:56.159Z,10.90
2019-01-18T23:01:59.431Z,10.70
2019-01-18T23:05:09.689Z,10.70
2019-01-18T23:08:25.581Z,10.80
2019-01-18T23:11:32.398Z,10.90
2019-01-18T23:14:35.484Z,10.80
2019-01-18T23:17:38.236Z,10.80
2019-01-18T23:21:06.418Z,10.70
2019-01-18T23:23:56.812Z,10.80
2019-01-18T23:27:05.638Z,10.80
2019-01-18T23:29:44.873Z,10.70
2019-01-18T23:32:46.016Z,10.60
2019-01-18T23:35:43.783Z,10.60
2019-01-18T23:38:29.647Z,10.50
2019-01-18T23:41:31.945Z,10.50
2019-01-18T23:44:47.116Z,10.50
2019-01-18T23:47:44.475Z,10.60
2019-01-18T23:50:29.237Z,10.50
2019-01-18T23:53:44.405Z,10.50
2019-01-18T23:56:35.346Z,10.70
2019-01-18T23:59:47.627Z,10.70
